Time;durP1;ratioP1;P1;durP2;ratioP2;P2;SDS_P1;SDS_P2;PMS_P1;PMS_P2;Temp;Humidity;BMP_temperature;BMP_pressure;BME280_temperature;BME280_humidity;BME280_pressure;Samples;Min_cycle;Max_cycle;Signal;HPM_P1;HPM_P2
2022/05/30 00:01:24;;;;;;;9.10;3.33;;;;;;;11.62;53.49;101466.84;5166776;28;20480;-42
2022/05/30 00:03:56;;;;;;;9.60;3.13;;;;;;;11.62;53.53;101485.34;5165569;28;20428;-42
2022/05/30 00:06:29;;;;;;;8.77;3.80;;;;;;;11.50;53.58;101455.56;5174055;28;20514;-46
2022/05/30 00:09:02;;;;;;;7.90;3.20;;;;;;;11.64;53.74;101478.09;5169237;28;20754;-45
2022/05/30 00:11:36;;;;;;;8.07;3.03;;;;;;;11.62;53.87;101458.91;5167379;28;20431;-43
2022/05/30 00:14:09;;;;;;;6.57;2.95;;;;;;;11.68;54.00;101468.91;5169295;28;20440;-43
2022/05/30 00:16:45;;;;;;;10.07;2.70;;;;;;;11.71;53.82;101468.63;5175432;28;20427;-46
2022/05/30 00:19:18;;;;;;;10.77;2.50;;;;;;;11.72;53.97;101459.72;5168955;28;20832;-43
2022/05/30 00:21:52;;;;;;;6.47;2.55;;;;;;;11.50;54.27;101426.47;5170224;28;20519;-43
2022/05/30 00:24:29;;;;;;;10.05;2.40;;;;;;;11.68;54.17;101447.75;5166122;28;20407;-42
2022/05/30 00:27:02;;;;;;;7.82;3.10;;;;;;;11.77;54.17;101463.59;5169848;28;21187;-43
2022/05/30 00:29:34;;;;;;;6.97;2.45;;;;;;;11.76;54.28;101455.78;5174595;28;20740;-44
2022/05/30 00:32:10;;;;;;;9.63;2.30;;;;;;;11.76;54.15;101463.72;5166636;28;20982;-45
2022/05/30 00:34:43;;;;;;;7.40;3.20;;;;;;;11.72;54.29;101454.41;5167982;28;21147;-42
2022/05/30 00:37:15;;;;;;;9.25;2.60;;;;;;;11.53;54.39;101421.72;5169972;28;20412;-43
2022/05/30 00:39:48;;;;;;;10.20;3.03;;;;;;;11.44;54.31;101392.66;5169858;28;20947;-42
2022/05/30 00:42:25;;;;;;;10.30;2.65;;;;;;;11.61;54.52;101468.63;5167736;28;20762;-43
2022/05/30 00:44:57;;;;;;;8.48;2.90;;;;;;;11.67;54.63;101440.78;5162218;28;20467;-42
2022/05/30 00:47:31;;;;;;;12.75;3.08;;;;;;;11.60;54.48;101431.75;5165601;28;20943;-44
2022/05/30 00:50:04;;;;;;;10.15;2.75;;;;;;;11.44;54.51;101404.06;5169062;28;20543;-41
2022/05/30 00:52:42;;;;;;;10.63;2.45;;;;;;;11.51;54.50;101430.78;5177250;28;20417;-43
2022/05/30 00:55:19;;;;;;;13.50;3.15;;;;;;;11.46;54.65;101428.56;5170615;28;20572;-43
2022/05/30 00:57:52;;;;;;;7.30;2.70;;;;;;;11.44;54.84;101427.03;5170237;28;20411;-44
2022/05/30 01:00:28;;;;;;;10.80;3.58;;;;;;;11.25;54.97;101412.03;5151152;28;20429;-45
2022/05/30 01:08:54;;;;;;;7.90;3.13;;;;;;;11.07;55.01;101423.28;5164731;28;20435;-41
2022/05/30 01:11:27;;;;;;;8.50;3.08;;;;;;;11.00;55.10;101411.59;5165473;28;20486;-45
2022/05/30 01:13:59;;;;;;;7.93;2.83;;;;;;;11.08;55.12;101439.97;5177078;28;20572;-44
2022/05/30 01:16:31;;;;;;;9.80;3.17;;;;;;;11.04;55.04;101431.50;5171961;28;20411;-43
2022/05/30 01:19:07;;;;;;;10.37;3.20;;;;;;;11.03;55.12;101431.63;5164988;28;20478;-44
2022/05/30 01:21:56;;;;;;;7.90;3.38;;;;;;;10.98;55.22;101432.03;5166983;28;20437;-44
2022/05/30 01:24:43;;;;;;;7.85;3.05;;;;;;;10.93;55.59;101433.41;5175642;28;21018;-45
2022/05/30 01:27:35;;;;;;;10.57;3.70;;;;;;;10.79;55.39;101432.03;5144035;28;20395;-43
2022/05/30 01:30:12;;;;;;;11.38;3.97;;;;;;;10.77;55.49;101432.16;5166435;28;20416;-43
2022/05/30 01:32:45;;;;;;;7.47;3.97;;;;;;;10.30;55.61;101354.50;5169175;28;20869;-45
2022/05/30 01:35:24;;;;;;;8.20;3.20;;;;;;;10.66;55.81;101428.81;5153372;28;20437;-47
2022/05/30 01:37:57;;;;;;;10.27;3.85;;;;;;;10.66;55.89;101431.44;5154637;28;20468;-43
2022/05/30 01:40:30;;;;;;;6.68;3.67;;;;;;;10.61;55.93;101427.38;5164785;28;20433;-41
2022/05/30 01:43:03;;;;;;;10.80;3.87;;;;;;;10.46;55.91;101412.88;5171341;28;20567;-43
2022/05/30 01:45:36;;;;;;;9.60;3.60;;;;;;;10.52;56.20;101425.56;5174236;28;20454;-44
2022/05/30 01:48:09;;;;;;;10.15;4.03;;;;;;;10.52;56.28;101422.91;5165310;28;20436;-46
2022/05/30 01:50:41;;;;;;;12.38;3.33;;;;;;;10.35;56.22;101410.38;5165539;28;20420;-46
2022/05/30 01:53:14;;;;;;;8.77;3.30;;;;;;;10.26;56.55;101401.44;5170632;28;20533;-46
2022/05/30 01:55:47;;;;;;;9.68;2.80;;;;;;;10.41;56.53;101435.41;5167302;28;20488;-44
2022/05/30 01:58:19;;;;;;;9.43;3.55;;;;;;;10.37;56.62;101425.13;5166379;28;20424;-45
2022/05/30 02:00:53;;;;;;;7.63;3.13;;;;;;;10.35;56.78;101426.22;5165128;28;20428;-42
2022/05/30 02:03:26;;;;;;;8.70;3.72;;;;;;;10.36;56.88;101430.53;5164022;28;20770;-46
2022/05/30 02:05:58;;;;;;;10.23;4.40;;;;;;;10.30;56.74;101420.50;5166383;28;20508;-44
2022/05/30 02:08:30;;;;;;;8.37;3.83;;;;;;;10.36;56.88;101427.88;5167521;28;20945;-44
2022/05/30 02:11:03;;;;;;;8.35;3.50;;;;;;;10.29;57.02;101422.31;5167143;28;20441;-43
2022/05/30 02:13:36;;;;;;;14.02;2.97;;;;;;;10.39;57.14;101430.25;5167554;28;20438;-42
2022/05/30 02:19:04;;;;;;;8.40;3.75;;;;;;;10.47;57.23;101430.44;5164625;28;20435;-46
2022/05/30 02:21:36;;;;;;;10.95;4.10;;;;;;;10.57;57.30;101428.63;5169465;28;20433;-42
2022/05/30 02:24:10;;;;;;;8.38;3.65;;;;;;;10.65;57.24;101427.94;5173156;28;20451;-42
2022/05/30 02:26:42;;;;;;;9.75;3.50;;;;;;;10.72;57.24;101425.63;5169715;28;20871;-40
2022/05/30 02:29:14;;;;;;;9.00;3.78;;;;;;;10.74;57.36;101415.72;5171292;28;20417;-41
2022/05/30 02:31:48;;;;;;;11.48;4.28;;;;;;;10.79;57.25;101421.44;5170597;28;20415;-42
2022/05/30 02:37:10;;;;;;;6.82;2.97;;;;;;;10.80;57.49;101402.81;5172020;28;20547;-42
2022/05/30 02:39:43;;;;;;;9.33;2.90;;;;;;;10.78;57.62;101401.31;5155197;28;20513;-42
2022/05/30 02:42:16;;;;;;;10.23;3.60;;;;;;;10.75;57.51;101386.56;5158414;28;20507;-42
2022/05/30 02:44:49;;;;;;;6.60;2.85;;;;;;;10.92;57.59;101403.53;5172561;28;20515;-41
2022/05/30 02:47:23;;;;;;;6.90;3.00;;;;;;;10.74;57.39;101381.38;5172196;28;20404;-49
2022/05/30 02:49:56;;;;;;;10.13;3.15;;;;;;;10.79;58.03;101405.59;5170647;28;20412;-42
2022/05/30 02:52:28;;;;;;;10.35;2.63;;;;;;;10.79;57.99;101405.59;5170867;28;20497;-43
2022/05/30 02:55:00;;;;;;;6.90;2.97;;;;;;;10.77;58.11;101403.09;5170798;28;21229;-42
2022/05/30 02:57:33;;;;;;;9.38;3.55;;;;;;;10.75;58.02;101401.56;5172223;28;20514;-47
2022/05/30 03:00:07;;;;;;;9.98;3.78;;;;;;;10.76;58.18;101398.78;5169359;28;21006;-45
2022/05/30 03:02:40;;;;;;;6.22;2.95;;;;;;;10.78;58.21;101398.66;5169392;28;20769;-43
2022/05/30 03:05:16;;;;;;;6.65;3.58;;;;;;;10.76;58.12;101400.59;5172840;28;20511;-48
2022/05/30 03:07:49;;;;;;;8.60;3.22;;;;;;;10.72;58.20;101397.38;5170819;28;20510;-43
2022/05/30 03:10:21;;;;;;;9.25;3.08;;;;;;;10.79;58.27;101402.97;5169239;28;20753;-45
2022/05/30 03:12:53;;;;;;;9.73;3.15;;;;;;;10.82;58.02;101397.41;5168240;28;20415;-45
2022/05/30 03:15:26;;;;;;;10.40;3.60;;;;;;;10.85;58.20;101397.97;5169360;28;20664;-42
2022/05/30 03:18:01;;;;;;;10.30;3.50;;;;;;;10.84;58.14;101400.75;5174862;28;20779;-43
2022/05/30 03:20:34;;;;;;;4.97;2.83;;;;;;;10.87;58.04;101399.63;5174722;28;20421;-42
2022/05/30 03:23:07;;;;;;;8.93;2.92;;;;;;;10.91;58.23;101411.59;5170136;28;20978;-42
2022/05/30 03:25:40;;;;;;;5.78;2.50;;;;;;;10.89;58.09;101401.16;5172333;28;20788;-42
2022/05/30 03:28:12;;;;;;;7.97;2.90;;;;;;;10.93;58.26;101404.34;5169843;28;20417;-42
2022/05/30 03:30:44;;;;;;;9.20;2.92;;;;;;;10.93;58.28;101396.41;5171618;28;20422;-43
2022/05/30 03:33:19;;;;;;;7.70;2.63;;;;;;;10.96;58.37;101404.06;5178391;28;20415;-43
2022/05/30 03:35:51;;;;;;;7.68;2.88;;;;;;;10.96;58.27;101410.22;5170243;28;20506;-43
2022/05/30 03:38:24;;;;;;;6.10;3.22;;;;;;;10.97;58.45;101416.34;5168465;28;20515;-43
2022/05/30 03:40:56;;;;;;;8.50;3.78;;;;;;;10.99;58.55;101425.78;5171839;28;20420;-47
2022/05/30 03:43:29;;;;;;;13.48;3.33;;;;;;;11.02;58.67;101414.91;5170243;28;20975;-44
2022/05/30 03:46:03;;;;;;;6.00;2.95;;;;;;;11.02;58.66;101409.63;5173464;28;20432;-42
2022/05/30 03:48:37;;;;;;;7.57;3.58;;;;;;;11.00;58.77;101402.84;5170065;28;20451;-43
2022/05/30 03:51:13;;;;;;;7.15;3.10;;;;;;;11.03;58.84;101415.78;5171255;28;20500;-41
2022/05/30 03:53:46;;;;;;;9.20;3.40;;;;;;;11.07;58.91;101403.94;5174150;28;20659;-47
2022/05/30 03:56:19;;;;;;;13.23;3.85;;;;;;;11.13;58.77;101399.91;5172213;28;20466;-42
2022/05/30 03:58:55;;;;;;;12.07;3.45;;;;;;;11.18;59.03;101397.66;5170124;28;20415;-41
2022/05/30 04:01:27;;;;;;;10.25;4.07;;;;;;;11.23;58.90;101392.81;5165885;28;20504;-43
2022/05/30 04:04:01;;;;;;;6.85;3.60;;;;;;;11.26;59.18;101395.16;5169416;28;20942;-43
2022/05/30 04:06:34;;;;;;;10.43;3.75;;;;;;;11.22;59.08;101380.56;5171451;28;20423;-43
2022/05/30 04:09:06;;;;;;;10.65;3.72;;;;;;;11.32;59.00;101378.75;5168844;28;20507;-43
2022/05/30 04:11:38;;;;;;;9.32;3.55;;;;;;;11.43;59.17;101386.53;5170373;28;20934;-43
2022/05/30 04:14:11;;;;;;;12.07;4.13;;;;;;;11.49;59.13;101382.50;5174088;28;20426;-42
2022/05/30 04:16:43;;;;;;;8.77;3.80;;;;;;;11.53;59.03;101382.03;5171873;28;20466;-41
2022/05/30 04:19:17;;;;;;;10.82;4.38;;;;;;;11.45;59.06;101352.81;5167356;28;20483;-46
2022/05/30 04:21:50;;;;;;;16.27;4.32;;;;;;;11.72;58.92;101388.28;5168804;28;20432;-41
2022/05/30 04:24:22;;;;;;;9.95;4.13;;;;;;;11.70;59.14;101361.94;5172540;28;20495;-44
2022/05/30 04:26:55;;;;;;;8.13;3.78;;;;;;;11.73;59.10;101360.81;5161631;28;20424;-42
2022/05/30 04:29:29;;;;;;;12.20;3.58;;;;;;;11.86;59.15;101381.69;5177342;28;20501;-43
2022/05/30 04:32:03;;;;;;;10.32;4.00;;;;;;;11.75;58.86;101369.47;5177339;28;20523;-43
2022/05/30 04:34:37;;;;;;;9.95;4.38;;;;;;;11.88;59.41;101377.94;5168881;28;20515;-44
2022/05/30 04:37:10;;;;;;;12.00;4.30;;;;;;;11.94;59.23;101382.66;5168389;28;20531;-44
2022/05/30 04:39:42;;;;;;;7.18;4.20;;;;;;;11.97;59.27;101389.47;5167700;28;20902;-45
2022/05/30 04:42:15;;;;;;;10.50;4.78;;;;;;;11.99;59.26;101388.34;5173776;28;20989;-44
2022/05/30 04:44:47;;;;;;;7.47;4.18;;;;;;;11.96;59.27;101383.34;5166610;28;20756;-45
2022/05/30 04:47:20;;;;;;;8.73;3.95;;;;;;;12.04;59.08;101389.72;5168307;28;20813;-46
2022/05/30 04:49:54;;;;;;;10.68;4.43;;;;;;;12.03;59.13;101382.75;5169480;28;20417;-43
2022/05/30 04:52:26;;;;;;;10.20;3.92;;;;;;;12.01;59.19;101382.91;5162890;28;20507;-42
2022/05/30 04:54:59;;;;;;;10.05;3.97;;;;;;;11.94;59.14;101369.41;5167090;28;20472;-42
2022/05/30 04:57:31;;;;;;;8.00;3.40;;;;;;;12.06;59.12;101387.78;5168997;28;20973;-42
2022/05/30 05:00:05;;;;;;;9.73;3.60;;;;;;;12.10;59.15;101389.13;5167139;28;21004;-44
2022/05/30 05:02:38;;;;;;;7.70;3.20;;;;;;;12.11;59.13;101388.16;5168260;28;20554;-44
2022/05/30 05:05:12;;;;;;;6.43;3.58;;;;;;;12.12;59.42;101381.88;5165339;28;20500;-47
2022/05/30 05:07:49;;;;;;;6.00;3.20;;;;;;;12.14;59.08;101401.09;5172348;28;20890;-44
2022/05/30 05:10:35;;;;;;;12.05;3.45;;;;;;;12.32;58.78;101382.59;5165401;28;20420;-44
2022/05/30 05:13:08;;;;;;;6.78;2.45;;;;;;;13.78;57.71;101385.75;5170005;28;20435;-46
2022/05/30 05:15:40;;;;;;;9.70;2.40;;;;;;;15.64;55.94;101393.44;5171375;28;20438;-42
2022/05/30 05:18:14;;;;;;;4.70;1.90;;;;;;;17.42;54.36;101375.81;5180506;28;20436;-45
2022/05/30 05:20:48;;;;;;;4.38;1.83;;;;;;;19.14;52.77;101384.34;5184698;28;20449;-47
2022/05/30 05:23:20;;;;;;;3.15;1.30;;;;;;;20.75;51.25;101386.88;5178420;28;20421;-47
2022/05/30 05:25:53;;;;;;;5.05;1.10;;;;;;;22.17;49.45;101390.94;5175464;28;20410;-46
2022/05/30 05:28:25;;;;;;;5.50;0.82;;;;;;;23.36;47.65;101390.19;5174180;28;20441;-49
2022/05/30 05:30:58;;;;;;;2.42;0.70;;;;;;;24.51;45.87;101386.06;5157698;28;20418;-50
2022/05/30 05:33:30;;;;;;;2.58;0.88;;;;;;;25.53;44.33;101381.31;5170552;28;20455;-49
2022/05/30 05:36:06;;;;;;;4.30;1.00;;;;;;;26.59;42.63;101391.91;5175611;28;20490;-52
2022/05/30 05:38:38;;;;;;;1.88;0.70;;;;;;;27.38;41.26;101399.22;5186627;28;20912;-50
2022/05/30 05:41:11;;;;;;;3.22;0.80;;;;;;;27.95;40.14;101393.53;5175259;28;20931;-50
2022/05/30 05:43:43;;;;;;;5.75;1.02;;;;;;;28.55;38.96;101396.38;5172760;28;27419;-54
2022/05/30 05:46:17;;;;;;;8.70;1.40;;;;;;;29.25;37.76;101400.84;5172940;28;20510;-50
2022/05/30 05:48:52;;;;;;;5.15;1.10;;;;;;;29.88;36.77;101393.59;5170103;28;20754;-52
2022/05/30 05:51:27;;;;;;;3.70;1.15;;;;;;;30.54;35.93;101390.31;5166002;28;20504;-52
2022/05/30 05:54:02;;;;;;;4.93;1.57;;;;;;;31.06;34.68;101385.69;5170595;28;20504;-53
2022/05/30 05:56:37;;;;;;;3.60;1.40;;;;;;;31.38;34.32;101398.25;5174669;28;20464;-49
2022/05/30 05:59:10;;;;;;;6.65;1.35;;;;;;;31.55;33.82;101396.03;5173147;28;20819;-48
2022/05/30 06:01:42;;;;;;;5.13;1.80;;;;;;;32.00;33.23;101405.19;5169041;28;20431;-50
2022/05/30 06:04:15;;;;;;;6.33;1.40;;;;;;;32.45;32.52;101395.13;5171679;28;20750;-49
2022/05/30 06:06:48;;;;;;;3.95;1.08;;;;;;;32.86;31.47;101383.91;5176058;28;20434;-53
2022/05/30 06:09:21;;;;;;;4.43;2.17;;;;;;;33.25;30.92;101396.69;5166304;28;20478;-52
2022/05/30 06:11:54;;;;;;;6.40;2.55;;;;;;;33.58;30.23;101400.50;5175136;28;20997;-48
2022/05/30 06:14:27;;;;;;;4.72;2.15;;;;;;;33.90;29.90;101407.22;5179588;28;20404;-49
2022/05/30 06:17:00;;;;;;;8.55;2.08;;;;;;;33.81;29.60;101404.31;5150832;28;20464;-49
2022/05/30 06:19:32;;;;;;;2.58;0.80;;;;;;;33.75;29.65;101405.50;5167917;28;20513;-49
2022/05/30 06:22:07;;;;;;;6.28;0.90;;;;;;;33.43;29.33;101414.31;5176900;28;20849;-52
2022/05/30 06:24:39;;;;;;;5.75;0.63;;;;;;;33.09;29.76;101415.19;5178269;28;20438;-50
2022/05/30 06:27:17;;;;;;;1.85;0.52;;;;;;;32.62;29.91;101415.81;5178119;28;20491;-49
2022/05/30 06:29:51;;;;;;;2.40;0.73;;;;;;;32.43;30.08;101397.31;5175836;28;20800;-52
2022/05/30 06:32:23;;;;;;;2.83;0.73;;;;;;;32.24;30.08;101421.75;5170162;28;20419;-50
2022/05/30 06:34:56;;;;;;;4.43;1.20;;;;;;;31.31;30.43;101414.91;5160801;28;20496;-50
2022/05/30 06:37:30;;;;;;;1.98;0.73;;;;;;;30.40;30.92;101421.06;5178684;28;20445;-50
2022/05/30 06:40:03;;;;;;;2.60;0.40;;;;;;;29.54;31.37;101408.63;5179599;28;20423;-54
2022/05/30 06:42:36;;;;;;;4.35;0.80;;;;;;;28.62;31.58;101413.34;5179134;28;20442;-50
2022/05/30 06:45:09;;;;;;;2.38;0.60;;;;;;;27.71;32.15;101416.50;5174585;28;20540;-50
2022/05/30 06:47:41;;;;;;;4.20;0.70;;;;;;;26.94;32.32;101409.84;5170777;28;20406;-51
2022/05/30 06:50:14;;;;;;;2.25;1.10;;;;;;;26.12;32.69;101383.13;5182417;28;20469;-48
2022/05/30 06:52:47;;;;;;;3.90;0.80;;;;;;;25.49;33.15;101415.31;5182298;28;20438;-48
2022/05/30 06:55:20;;;;;;;3.28;0.95;;;;;;;24.92;33.42;101422.25;5179926;28;20581;-51
2022/05/30 07:00:46;;;;;;;3.60;0.77;;;;;;;24.54;33.90;101416.13;5164931;28;20878;-51
2022/05/30 07:03:19;;;;;;;2.73;1.00;;;;;;;25.64;33.18;101420.25;5180637;28;21001;-49
2022/05/30 07:05:51;;;;;;;3.08;0.63;;;;;;;26.88;32.26;101421.69;5181364;28;20423;-51
2022/05/30 07:08:25;;;;;;;3.83;0.70;;;;;;;27.53;31.83;101415.72;5178207;28;20494;-49
2022/05/30 07:10:57;;;;;;;3.10;0.63;;;;;;;28.04;31.29;101380.34;5169950;28;20841;-50
2022/05/30 07:13:30;;;;;;;2.65;0.90;;;;;;;28.36;31.21;101423.88;5174499;28;20421;-46
2022/05/30 07:16:03;;;;;;;2.10;0.60;;;;;;;27.41;31.77;101423.16;5180558;28;20433;-46
2022/05/30 07:18:36;;;;;;;3.75;0.75;;;;;;;27.10;32.04;101419.91;5184551;28;20450;-50
2022/05/30 07:21:12;;;;;;;1.95;0.70;;;;;;;27.39;31.78;101428.00;5181866;28;20431;-50
2022/05/30 07:23:45;;;;;;;3.83;0.90;;;;;;;27.36;31.70;101418.44;5149737;28;20439;-49
2022/05/30 07:26:21;;;;;;;1.27;0.50;;;;;;;26.90;32.03;101424.97;5183890;28;20506;-47
2022/05/30 07:28:53;;;;;;;1.77;0.50;;;;;;;26.10;32.17;101428.56;5186586;28;20415;-46
2022/05/30 07:31:28;;;;;;;2.10;0.60;;;;;;;25.16;32.63;101432.06;5179522;28;20888;-54
2022/05/30 07:34:01;;;;;;;2.55;0.50;;;;;;;24.34;32.92;101424.47;5179428;28;20506;-51
2022/05/30 07:36:33;;;;;;;4.55;1.13;;;;;;;23.68;33.34;101433.25;5182429;28;20500;-47
2022/05/30 07:39:07;;;;;;;3.15;0.82;;;;;;;23.09;33.82;101423.81;5184206;28;20552;-51
2022/05/30 07:41:43;;;;;;;2.90;0.50;;;;;;;22.63;34.13;101422.19;5179925;28;20522;-47
2022/05/30 07:44:15;;;;;;;4.47;1.23;;;;;;;22.17;34.33;101413.28;5182433;28;20579;-44
2022/05/30 07:46:48;;;;;;;4.45;0.93;;;;;;;21.78;34.66;101408.81;5168037;28;20417;-45
2022/05/30 07:49:20;;;;;;;1.58;0.93;;;;;;;21.56;35.00;101429.75;5164395;28;20439;-48
2022/05/30 07:51:53;;;;;;;1.90;0.98;;;;;;;21.23;35.29;101427.03;5177616;28;20466;-47
2022/05/30 07:54:30;;;;;;;3.55;1.00;;;;;;;20.94;35.48;101424.50;5161959;28;20478;-44
2022/05/30 07:57:05;;;;;;;1.30;0.57;;;;;;;20.68;35.67;101422.56;5157799;28;20484;-44
2022/05/30 07:59:38;;;;;;;1.20;0.57;;;;;;;20.61;35.98;101426.28;5171938;28;20483;-46
2022/05/30 08:02:10;;;;;;;2.20;0.80;;;;;;;20.48;36.06;101427.88;5171482;28;20438;-48
2022/05/30 08:04:43;;;;;;;2.85;0.70;;;;;;;20.40;35.98;101432.56;5188592;28;20581;-45
2022/05/30 08:07:15;;;;;;;1.42;0.70;;;;;;;20.35;36.17;101418.94;5184743;28;20430;-46
2022/05/30 08:09:49;;;;;;;2.38;0.70;;;;;;;20.39;36.20;101422.88;5169284;28;20469;-46
2022/05/30 08:12:21;;;;;;;0.73;0.60;;;;;;;20.50;36.15;101435.69;5175872;28;20976;-47
2022/05/30 08:14:54;;;;;;;2.40;0.40;;;;;;;20.47;36.14;101430.72;5174284;28;20414;-46
2022/05/30 08:17:26;;;;;;;2.23;0.70;;;;;;;20.46;36.02;101437.13;5167456;28;20936;-45
2022/05/30 08:20:01;;;;;;;3.50;0.95;;;;;;;20.51;35.95;101434.69;5170748;28;20446;-46
2022/05/30 08:22:34;;;;;;;3.47;0.77;;;;;;;20.61;35.91;101435.16;5173464;28;20848;-46
2022/05/30 08:25:14;;;;;;;2.35;0.82;;;;;;;20.64;35.92;101440.13;5170467;28;20465;-47
2022/05/30 08:27:48;;;;;;;2.45;0.93;;;;;;;20.54;35.97;101444.22;5169009;28;20452;-46
2022/05/30 08:30:22;;;;;;;2.97;0.75;;;;;;;20.36;36.57;101442.06;5169545;28;20988;-47
2022/05/30 08:32:54;;;;;;;3.53;1.20;;;;;;;20.19;36.56;101437.03;5167294;28;20511;-47
2022/05/30 08:35:27;;;;;;;3.00;1.25;;;;;;;20.02;36.74;101454.47;5169394;28;20907;-45
2022/05/30 08:37:59;;;;;;;6.55;1.30;;;;;;;19.69;36.68;101438.16;5172473;28;20558;-48
2022/05/30 08:43:30;;;;;;;3.70;1.40;;;;;;;19.36;37.43;101454.78;5171123;28;20466;-46
2022/05/30 08:46:12;;;;;;;3.25;1.00;;;;;;;19.27;37.59;101464.78;5168380;28;20510;-44
2022/05/30 08:48:51;;;;;;;7.07;1.30;;;;;;;19.15;37.66;101466.31;5163711;28;20413;-46
2022/05/30 08:51:53;;;;;;;6.70;1.20;;;;;;;19.04;38.03;101454.25;5165354;28;20417;-44
2022/05/30 08:54:45;;;;;;;3.10;1.10;;;;;;;18.87;38.53;101458.19;5162839;28;20455;-48
2022/05/30 08:57:33;;;;;;;5.20;1.38;;;;;;;18.77;38.82;101469.22;5167507;28;21292;-45
2022/05/30 09:00:17;;;;;;;3.58;0.82;;;;;;;18.66;39.08;101472.34;5173275;28;20441;-46
2022/05/30 09:02:55;;;;;;;2.80;1.20;;;;;;;18.53;39.45;101469.50;5167813;28;20459;-48
2022/05/30 09:05:34;;;;;;;3.55;1.10;;;;;;;18.52;39.53;101473.16;5168093;28;20427;-49
2022/05/30 09:08:12;;;;;;;4.33;1.13;;;;;;;18.54;39.67;101476.50;5167665;28;20671;-47
2022/05/30 09:10:59;;;;;;;3.97;1.42;;;;;;;18.47;39.89;101479.09;5171102;28;20433;-48
2022/05/30 09:13:38;;;;;;;5.47;1.63;;;;;;;18.40;39.97;101472.84;5167647;28;20430;-46
2022/05/30 09:16:18;;;;;;;5.25;1.95;;;;;;;18.37;40.03;101474.03;5165162;28;20423;-48
2022/05/30 09:18:54;;;;;;;6.03;1.60;;;;;;;18.37;40.43;101479.38;5168459;28;20503;-46
2022/05/30 09:21:30;;;;;;;4.45;1.50;;;;;;;18.28;40.55;101468.97;5161210;28;20514;-48
2022/05/30 09:24:03;;;;;;;5.32;1.95;;;;;;;18.16;40.63;101476.63;5166464;28;20438;-44
2022/05/30 09:26:40;;;;;;;4.80;2.00;;;;;;;18.11;40.73;101462.97;5165572;28;20921;-44
2022/05/30 09:29:20;;;;;;;5.78;1.63;;;;;;;17.91;40.91;101458.16;5170877;28;20427;-47
2022/05/30 09:32:06;;;;;;;4.25;1.38;;;;;;;17.69;40.97;101437.66;5170277;28;20438;-47
2022/05/30 09:34:49;;;;;;;5.78;1.52;;;;;;;17.94;41.02;101463.16;5169168;28;20507;-46
2022/05/30 09:37:29;;;;;;;7.68;1.58;;;;;;;18.01;41.10;101465.09;5173321;28;20498;-48
2022/05/30 09:40:01;;;;;;;4.97;1.50;;;;;;;17.78;40.92;101417.06;5169687;28;20875;-46
2022/05/30 09:42:37;;;;;;;5.07;1.67;;;;;;;18.14;40.94;101462.59;5170965;28;20433;-44
2022/05/30 09:45:16;;;;;;;5.93;1.30;;;;;;;18.13;41.04;101458.28;5168992;28;20894;-45
2022/05/30 09:48:01;;;;;;;5.13;1.33;;;;;;;18.16;40.87;101455.22;5170311;28;20932;-46
2022/05/30 09:51:08;;;;;;;6.50;1.87;;;;;;;18.22;40.78;101464.38;5169987;28;20423;-45
2022/05/30 09:53:50;;;;;;;4.78;1.50;;;;;;;18.25;40.97;101464.81;5170353;28;20436;-46
2022/05/30 09:56:23;;;;;;;3.72;1.20;;;;;;;18.29;41.02;101463.44;5172005;28;20424;-46
2022/05/30 09:59:05;;;;;;;3.30;1.30;;;;;;;18.38;40.92;101459.63;5171039;28;20418;-48
2022/05/30 10:01:39;;;;;;;3.45;0.98;;;;;;;18.46;40.98;101465.88;5171769;28;20430;-49
2022/05/30 10:04:19;;;;;;;6.13;1.10;;;;;;;18.50;40.89;101467.19;5169078;28;20573;-48
2022/05/30 10:07:13;;;;;;;3.83;1.23;;;;;;;18.51;41.02;101464.31;5170384;28;20537;-45
2022/05/30 10:09:56;;;;;;;4.07;1.30;;;;;;;18.49;41.12;101470.88;5169541;28;20422;-46
2022/05/30 10:12:36;;;;;;;6.93;1.63;;;;;;;18.52;41.04;101466.00;5169042;28;20483;-46
2022/05/30 10:15:26;;;;;;;7.32;1.27;;;;;;;18.50;41.01;101467.19;5170945;28;20430;-48
2022/05/30 10:18:23;;;;;;;5.05;1.20;;;;;;;18.32;41.07;101460.38;5164706;28;20498;-45
2022/05/30 10:21:10;;;;;;;4.00;1.37;;;;;;;18.36;41.28;101475.03;5168342;28;20442;-46
2022/05/30 10:30:07;;;;;;;3.50;1.43;;;;;;;18.51;41.03;101488.41;5165234;28;20900;-49
2022/05/30 10:32:53;;;;;;;7.65;1.67;;;;;;;18.40;41.12;101483.53;5141070;28;20456;-49
2022/05/30 10:35:35;;;;;;;5.32;1.80;;;;;;;18.29;41.12;101486.66;5164472;28;20422;-46
2022/05/30 10:38:26;;;;;;;5.55;1.52;;;;;;;18.04;41.20;101467.41;5163367;28;20438;-48
2022/05/30 10:41:11;;;;;;;4.40;2.05;;;;;;;18.16;40.92;101495.34;5162303;28;20481;-45
2022/05/30 10:44:00;;;;;;;4.57;1.63;;;;;;;17.94;41.27;101467.66;5173423;28;20435;-45
2022/05/30 10:46:40;;;;;;;5.72;1.70;;;;;;;18.09;41.20;101497.09;5168870;28;20480;-46
2022/05/30 10:49:17;;;;;;;5.93;1.70;;;;;;;18.04;41.29;101480.75;5173889;28;20501;-50
2022/05/30 10:51:58;;;;;;;7.18;2.08;;;;;;;18.10;41.33;101498.75;5171421;28;20424;-49
2022/05/30 10:54:37;;;;;;;5.53;1.80;;;;;;;18.03;41.51;101505.84;5166531;28;20426;-44
2022/05/30 10:57:20;;;;;;;5.43;2.05;;;;;;;17.28;41.78;101411.31;5171412;28;20473;-48
2022/05/30 11:00:04;;;;;;;4.27;2.23;;;;;;;17.81;42.06;101513.72;5170813;28;20406;-49
2022/05/30 11:02:51;;;;;;;6.03;1.83;;;;;;;17.54;42.26;101485.69;5174865;28;20553;-43
2022/05/30 11:05:28;;;;;;;9.37;2.70;;;;;;;17.56;42.38;101504.19;5178256;28;20475;-45
2022/05/30 11:08:10;;;;;;;6.28;3.13;;;;;;;17.58;42.56;101520.88;5176585;28;20498;-46
2022/05/30 11:10:49;;;;;;;7.28;3.47;;;;;;;17.48;42.78;101521.97;5171355;28;21131;-47
2022/05/30 11:16:40;;;;;;;6.10;2.70;;;;;;;17.32;43.29;101522.09;5170511;28;20427;-50
2022/05/30 11:19:21;;;;;;;4.97;2.58;;;;;;;17.27;43.54;101522.59;5173839;28;20419;-48
2022/05/30 11:22:05;;;;;;;4.35;2.30;;;;;;;17.24;43.44;101524.81;5176372;28;20420;-44
2022/05/30 11:24:39;;;;;;;5.05;2.65;;;;;;;17.18;43.81;101520.16;5173746;28;20436;-46
2022/05/30 11:27:25;;;;;;;4.15;2.25;;;;;;;17.26;44.01;101517.47;5173546;28;20438;-50
2022/05/30 11:30:31;;;;;;;6.05;1.92;;;;;;;17.28;44.10;101523.44;5171752;28;20776;-49
2022/05/30 11:33:39;;;;;;;5.13;1.77;;;;;;;17.30;44.24;101518.75;5169595;28;20427;-44
2022/05/30 11:36:30;;;;;;;6.63;2.23;;;;;;;17.31;44.22;101520.41;5172052;28;20469;-49
2022/05/30 11:39:17;;;;;;;7.63;2.53;;;;;;;17.28;44.51;101520.75;5169253;28;20591;-49
2022/05/30 11:42:04;;;;;;;3.58;1.58;;;;;;;17.21;44.43;101503.81;5173996;28;20529;-45
2022/05/30 11:44:50;;;;;;;3.07;1.33;;;;;;;17.34;44.79;101528.06;5168713;28;20422;-48
2022/05/30 11:47:46;;;;;;;2.30;1.10;;;;;;;17.36;44.70;101520.72;5173647;28;20485;-53
2022/05/30 11:50:34;;;;;;;3.25;1.10;;;;;;;17.29;44.68;101504.59;5173722;28;20424;-48
2022/05/30 11:53:41;;;;;;;2.67;1.00;;;;;;;17.43;44.59;101519.00;5172564;28;20431;-48
2022/05/30 11:56:23;;;;;;;4.03;1.17;;;;;;;17.56;44.62;101517.56;5158118;28;20588;-47
2022/05/30 11:59:33;;;;;;;2.92;1.10;;;;;;;17.66;44.69;101515.50;5170499;28;20433;-44
2022/05/30 12:02:12;;;;;;;1.75;1.10;;;;;;;17.76;44.58;101513.38;5149024;28;20740;-49
2022/05/30 12:05:19;;;;;;;3.17;1.17;;;;;;;17.87;44.54;101515.66;5172236;28;20498;-46
2022/05/30 12:08:34;;;;;;;2.47;1.25;;;;;;;18.00;44.40;101508.88;5173769;28;20912;-49
2022/05/30 12:11:37;;;;;;;4.13;1.35;;;;;;;18.18;44.37;101512.03;5170792;28;20423;-48
2022/05/30 12:14:38;;;;;;;2.88;1.45;;;;;;;18.37;43.93;101510.66;5172174;28;20424;-50
2022/05/30 12:17:28;;;;;;;3.33;0.90;;;;;;;18.48;44.07;101504.00;5171194;28;20442;-52
2022/05/30 12:23:51;;;;;;;2.20;0.85;;;;;;;18.78;43.58;101518.19;5171290;28;20437;-48
2022/05/30 12:27:01;;;;;;;2.28;0.88;;;;;;;18.81;43.52;101499.09;5171977;28;21196;-51
2022/05/30 12:29:54;;;;;;;6.40;1.20;;;;;;;18.83;43.16;101484.50;5068389;29;20449;-48
2022/05/30 12:32:40;;;;;;;1.70;1.00;;;;;;;18.91;43.26;101496.13;5167413;28;20430;-48
2022/05/30 12:35:23;;;;;;;3.00;0.90;;;;;;;18.88;42.82;101506.16;5172878;28;20426;-49
2022/05/30 12:38:18;;;;;;;3.15;0.90;;;;;;;18.84;42.65;101502.22;5167812;28;20691;-50
2022/05/30 12:41:20;;;;;;;2.00;0.90;;;;;;;18.87;42.41;101496.50;5170585;28;20419;-48